sensor_id;sensor_type;location;lat;lon;timestamp;temperature;humidity
30244;DHT22;64022;53.652;9.792;2023-03-04T00:02:23;20.20;60.10
30244;DHT22;64022;53.652;9.792;2023-03-04T00:04:48;20.20;60.00
30244;DHT22;64022;53.652;9.792;2023-03-04T00:07:14;20.20;60.00
30244;DHT22;64022;53.652;9.792;2023-03-04T00:09:42;20.20;60.00
30244;DHT22;64022;53.652;9.792;2023-03-04T00:12:07;20.20;59.90
30244;DHT22;64022;53.652;9.792;2023-03-04T00:14:33;20.10;60.10
30244;DHT22;64022;53.652;9.792;2023-03-04T00:16:59;20.10;60.00
30244;DHT22;64022;53.652;9.792;2023-03-04T00:19:24;20.20;60.10
30244;DHT22;64022;53.652;9.792;2023-03-04T00:21:50;20.20;60.00
30244;DHT22;64022;53.652;9.792;2023-03-04T00:24:15;20.20;60.00
30244;DHT22;64022;53.652;9.792;2023-03-04T00:26:42;20.20;60.00
30244;DHT22;64022;53.652;9.792;2023-03-04T00:29:08;20.20;60.00
30244;DHT22;64022;53.652;9.792;2023-03-04T00:31:33;20.20;60.00
30244;DHT22;64022;53.652;9.792;2023-03-04T00:33:59;20.20;60.00
30244;DHT22;64022;53.652;9.792;2023-03-04T00:36:24;20.20;59.90
30244;DHT22;64022;53.652;9.792;2023-03-04T00:38:50;20.20;59.90
30244;DHT22;64022;53.652;9.792;2023-03-04T00:41:15;20.20;59.90
30244;DHT22;64022;53.652;9.792;2023-03-04T00:43:41;20.20;59.90
30244;DHT22;64022;53.652;9.792;2023-03-04T00:46:06;20.20;59.90
30244;DHT22;64022;53.652;9.792;2023-03-04T00:48:32;20.20;59.80
30244;DHT22;64022;53.652;9.792;2023-03-04T00:50:57;20.20;59.80
30244;DHT22;64022;53.652;9.792;2023-03-04T00:53:23;20.20;59.80
30244;DHT22;64022;53.652;9.792;2023-03-04T00:55:49;20.20;59.80
30244;DHT22;64022;53.652;9.792;2023-03-04T00:58:14;20.20;59.70
30244;DHT22;64022;53.652;9.792;2023-03-04T01:00:39;20.20;59.70
30244;DHT22;64022;53.652;9.792;2023-03-04T01:03:05;20.20;59.70
30244;DHT22;64022;53.652;9.792;2023-03-04T01:05:31;20.20;59.70
30244;DHT22;64022;53.652;9.792;2023-03-04T01:07:58;20.20;59.70
30244;DHT22;64022;53.652;9.792;2023-03-04T01:10:24;20.20;59.70
30244;DHT22;64022;53.652;9.792;2023-03-04T01:12:49;20.20;59.60
30244;DHT22;64022;53.652;9.792;2023-03-04T01:15:15;20.20;59.60
30244;DHT22;64022;53.652;9.792;2023-03-04T01:17:40;20.20;59.60
30244;DHT22;64022;53.652;9.792;2023-03-04T01:20:07;20.20;59.60
30244;DHT22;64022;53.652;9.792;2023-03-04T01:22:33;20.20;59.60
30244;DHT22;64022;53.652;9.792;2023-03-04T01:24:59;20.20;60.10
30244;DHT22;64022;53.652;9.792;2023-03-04T01:27:24;20.20;59.50
30244;DHT22;64022;53.652;9.792;2023-03-04T01:29:50;20.20;59.50
30244;DHT22;64022;53.652;9.792;2023-03-04T01:32:15;20.20;59.50
30244;DHT22;64022;53.652;9.792;2023-03-04T01:34:41;20.20;59.50
30244;DHT22;64022;53.652;9.792;2023-03-04T01:37:06;20.20;59.50
30244;DHT22;64022;53.652;9.792;2023-03-04T01:39:32;20.20;59.50
30244;DHT22;64022;53.652;9.792;2023-03-04T01:41:57;20.20;59.50
30244;DHT22;64022;53.652;9.792;2023-03-04T01:44:23;20.20;59.40
30244;DHT22;64022;53.652;9.792;2023-03-04T01:46:51;20.20;59.40
30244;DHT22;64022;53.652;9.792;2023-03-04T01:49:18;20.20;59.40
30244;DHT22;64022;53.652;9.792;2023-03-04T01:51:48;20.20;59.40
30244;DHT22;64022;53.652;9.792;2023-03-04T01:54:15;20.20;59.40
30244;DHT22;64022;53.652;9.792;2023-03-04T01:56:44;20.20;59.90
30244;DHT22;64022;53.652;9.792;2023-03-04T01:59:18;20.20;59.40
30244;DHT22;64022;53.652;9.792;2023-03-04T02:01:54;20.20;59.30
30244;DHT22;64022;53.652;9.792;2023-03-04T02:04:22;20.20;59.30
30244;DHT22;64022;53.652;9.792;2023-03-04T02:06:50;20.20;59.30
30244;DHT22;64022;53.652;9.792;2023-03-04T02:09:16;20.20;59.30
30244;DHT22;64022;53.652;9.792;2023-03-04T02:11:43;20.20;59.30
30244;DHT22;64022;53.652;9.792;2023-03-04T02:14:10;20.20;59.30
30244;DHT22;64022;53.652;9.792;2023-03-04T02:16:37;20.20;59.20
30244;DHT22;64022;53.652;9.792;2023-03-04T02:21:57;20.20;59.20
30244;DHT22;64022;53.652;9.792;2023-03-04T02:24:46;20.20;59.20
30244;DHT22;64022;53.652;9.792;2023-03-04T02:27:13;20.20;59.10
30244;DHT22;64022;53.652;9.792;2023-03-04T02:29:39;20.20;59.20
30244;DHT22;64022;53.652;9.792;2023-03-04T02:32:05;20.20;59.10
30244;DHT22;64022;53.652;9.792;2023-03-04T02:34:32;20.20;59.10
30244;DHT22;64022;53.652;9.792;2023-03-04T02:36:59;20.20;59.10
30244;DHT22;64022;53.652;9.792;2023-03-04T02:41:55;20.20;58.90
30244;DHT22;64022;53.652;9.792;2023-03-04T02:44:26;20.20;59.10
30244;DHT22;64022;53.652;9.792;2023-03-04T02:46:54;20.20;59.10
30244;DHT22;64022;53.652;9.792;2023-03-04T02:49:20;20.20;59.10
30244;DHT22;64022;53.652;9.792;2023-03-04T02:54:25;20.20;59.00
30244;DHT22;64022;53.652;9.792;2023-03-04T02:56:52;20.20;59.00
30244;DHT22;64022;53.652;9.792;2023-03-04T02:59:19;20.20;59.00
30244;DHT22;64022;53.652;9.792;2023-03-04T03:01:45;20.20;59.00
30244;DHT22;64022;53.652;9.792;2023-03-04T03:04:10;20.20;58.90
30244;DHT22;64022;53.652;9.792;2023-03-04T03:06:37;20.20;58.90
30244;DHT22;64022;53.652;9.792;2023-03-04T03:09:03;20.20;58.90
30244;DHT22;64022;53.652;9.792;2023-03-04T03:11:29;20.20;58.90
30244;DHT22;64022;53.652;9.792;2023-03-04T03:13:55;20.20;58.90
30244;DHT22;64022;53.652;9.792;2023-03-04T03:16:21;20.30;58.90
30244;DHT22;64022;53.652;9.792;2023-03-04T03:18:47;20.20;58.80
30244;DHT22;64022;53.652;9.792;2023-03-04T03:21:12;20.20;58.80
30244;DHT22;64022;53.652;9.792;2023-03-04T03:23:38;20.20;59.30
30244;DHT22;64022;53.652;9.792;2023-03-04T03:26:04;20.20;58.80
30244;DHT22;64022;53.652;9.792;2023-03-04T03:28:30;20.20;58.80
30244;DHT22;64022;53.652;9.792;2023-03-04T03:30:56;20.20;58.70
30244;DHT22;64022;53.652;9.792;2023-03-04T03:33:21;20.20;58.70
30244;DHT22;64022;53.652;9.792;2023-03-04T03:35:47;20.20;58.70
30244;DHT22;64022;53.652;9.792;2023-03-04T03:38:13;20.30;58.80
30244;DHT22;64022;53.652;9.792;2023-03-04T03:40:38;20.30;58.80
30244;DHT22;64022;53.652;9.792;2023-03-04T03:43:04;20.20;58.70
30244;DHT22;64022;53.652;9.792;2023-03-04T03:45:29;20.20;58.70
30244;DHT22;64022;53.652;9.792;2023-03-04T03:47:55;20.30;58.70
30244;DHT22;64022;53.652;9.792;2023-03-04T03:50:20;20.20;58.70
30244;DHT22;64022;53.652;9.792;2023-03-04T03:52:46;20.20;58.70
30244;DHT22;64022;53.652;9.792;2023-03-04T03:55:11;20.20;58.70
30244;DHT22;64022;53.652;9.792;2023-03-04T03:57:37;20.20;58.60
30244;DHT22;64022;53.652;9.792;2023-03-04T04:00:03;20.20;58.60
30244;DHT22;64022;53.652;9.792;2023-03-04T04:02:29;20.20;58.60
30244;DHT22;64022;53.652;9.792;2023-03-04T04:04:54;20.20;58.50
30244;DHT22;64022;53.652;9.792;2023-03-04T04:07:20;20.20;58.50
30244;DHT22;64022;53.652;9.792;2023-03-04T04:09:45;20.20;58.50
30244;DHT22;64022;53.652;9.792;2023-03-04T04:12:14;20.20;58.50
30244;DHT22;64022;53.652;9.792;2023-03-04T04:14:41;20.30;58.50
30244;DHT22;64022;53.652;9.792;2023-03-04T04:17:07;20.30;58.50
30244;DHT22;64022;53.652;9.792;2023-03-04T04:19:33;20.20;58.50
30244;DHT22;64022;53.652;9.792;2023-03-04T04:21:58;20.20;58.50
30244;DHT22;64022;53.652;9.792;2023-03-04T04:24:24;20.20;58.50
30244;DHT22;64022;53.652;9.792;2023-03-04T04:26:50;20.20;58.50
30244;DHT22;64022;53.652;9.792;2023-03-04T04:29:15;20.20;58.50
30244;DHT22;64022;53.652;9.792;2023-03-04T04:31:41;20.20;58.40
30244;DHT22;64022;53.652;9.792;2023-03-04T04:34:07;20.20;58.40
30244;DHT22;64022;53.652;9.792;2023-03-04T04:36:33;20.20;58.40
30244;DHT22;64022;53.652;9.792;2023-03-04T04:38:58;20.20;58.40
30244;DHT22;64022;53.652;9.792;2023-03-04T04:41:27;20.20;58.30
30244;DHT22;64022;53.652;9.792;2023-03-04T04:43:54;20.20;58.30
30244;DHT22;64022;53.652;9.792;2023-03-04T04:46:20;20.20;58.30
30244;DHT22;64022;53.652;9.792;2023-03-04T04:48:46;20.20;58.30
30244;DHT22;64022;53.652;9.792;2023-03-04T04:51:11;20.20;58.30
30244;DHT22;64022;53.652;9.792;2023-03-04T04:53:37;20.20;58.30
30244;DHT22;64022;53.652;9.792;2023-03-04T04:56:15;20.20;58.30
30244;DHT22;64022;53.652;9.792;2023-03-04T04:58:41;20.20;58.30
30244;DHT22;64022;53.652;9.792;2023-03-04T05:01:07;20.20;58.10
30244;DHT22;64022;53.652;9.792;2023-03-04T05:03:33;20.20;58.90
30244;DHT22;64022;53.652;9.792;2023-03-04T05:05:59;20.20;58.30
30244;DHT22;64022;53.652;9.792;2023-03-04T05:08:24;20.20;58.30
30244;DHT22;64022;53.652;9.792;2023-03-04T05:10:51;20.20;58.20
30244;DHT22;64022;53.652;9.792;2023-03-04T05:13:17;20.20;58.20
30244;DHT22;64022;53.652;9.792;2023-03-04T05:15:44;20.20;58.20
30244;DHT22;64022;53.652;9.792;2023-03-04T05:18:09;20.20;58.20
30244;DHT22;64022;53.652;9.792;2023-03-04T05:20:35;20.20;58.10
30244;DHT22;64022;53.652;9.792;2023-03-04T05:23:01;20.20;58.10
30244;DHT22;64022;53.652;9.792;2023-03-04T05:25:26;20.20;58.10
30244;DHT22;64022;53.652;9.792;2023-03-04T05:27:52;20.20;58.10
30244;DHT22;64022;53.652;9.792;2023-03-04T05:30:17;20.20;58.10
30244;DHT22;64022;53.652;9.792;2023-03-04T05:32:43;20.20;58.10
30244;DHT22;64022;53.652;9.792;2023-03-04T05:35:09;20.30;58.10
30244;DHT22;64022;53.652;9.792;2023-03-04T05:37:34;20.30;58.20
30244;DHT22;64022;53.652;9.792;2023-03-04T05:40:00;20.20;58.10
30244;DHT22;64022;53.652;9.792;2023-03-04T05:42:25;20.30;58.10
30244;DHT22;64022;53.652;9.792;2023-03-04T05:44:51;20.30;58.10
30244;DHT22;64022;53.652;9.792;2023-03-04T05:47:16;20.30;58.10
30244;DHT22;64022;53.652;9.792;2023-03-04T05:49:42;20.30;58.00
30244;DHT22;64022;53.652;9.792;2023-03-04T05:52:09;20.30;58.00
30244;DHT22;64022;53.652;9.792;2023-03-04T05:54:34;20.30;58.00
30244;DHT22;64022;53.652;9.792;2023-03-04T05:57:00;20.30;58.00
30244;DHT22;64022;53.652;9.792;2023-03-04T05:59:26;20.30;57.90
30244;DHT22;64022;53.652;9.792;2023-03-04T06:01:52;20.30;57.90
30244;DHT22;64022;53.652;9.792;2023-03-04T06:04:18;20.30;57.90
30244;DHT22;64022;53.652;9.792;2023-03-04T06:06:44;20.30;57.90
30244;DHT22;64022;53.652;9.792;2023-03-04T06:09:11;20.20;57.80
30244;DHT22;64022;53.652;9.792;2023-03-04T06:11:37;20.30;57.80
30244;DHT22;64022;53.652;9.792;2023-03-04T06:14:03;20.30;57.80
30244;DHT22;64022;53.652;9.792;2023-03-04T06:16:28;20.30;57.70
30244;DHT22;64022;53.652;9.792;2023-03-04T06:18:53;20.30;57.70
30244;DHT22;64022;53.652;9.792;2023-03-04T06:21:19;20.30;58.20
30244;DHT22;64022;53.652;9.792;2023-03-04T06:23:45;20.30;57.70
30244;DHT22;64022;53.652;9.792;2023-03-04T06:26:11;20.30;57.70
30244;DHT22;64022;53.652;9.792;2023-03-04T06:28:40;20.30;57.70
30244;DHT22;64022;53.652;9.792;2023-03-04T06:31:06;20.30;57.60
30244;DHT22;64022;53.652;9.792;2023-03-04T06:33:31;20.30;57.60
30244;DHT22;64022;53.652;9.792;2023-03-04T06:35:57;20.30;57.60
30244;DHT22;64022;53.652;9.792;2023-03-04T06:38:24;20.20;57.60
30244;DHT22;64022;53.652;9.792;2023-03-04T06:40:50;20.30;57.60
30244;DHT22;64022;53.652;9.792;2023-03-04T06:43:15;20.20;57.50
30244;DHT22;64022;53.652;9.792;2023-03-04T06:45:41;20.30;57.60
30244;DHT22;64022;53.652;9.792;2023-03-04T06:48:06;20.30;57.50
30244;DHT22;64022;53.652;9.792;2023-03-04T06:50:32;20.20;57.50
30244;DHT22;64022;53.652;9.792;2023-03-04T06:52:58;20.20;57.50
30244;DHT22;64022;53.652;9.792;2023-03-04T06:55:23;20.30;57.50
30244;DHT22;64022;53.652;9.792;2023-03-04T06:57:49;20.20;57.40
30244;DHT22;64022;53.652;9.792;2023-03-04T07:00:15;20.20;57.40
30244;DHT22;64022;53.652;9.792;2023-03-04T07:02:41;20.20;57.50
30244;DHT22;64022;53.652;9.792;2023-03-04T07:05:08;20.20;57.50
30244;DHT22;64022;53.652;9.792;2023-03-04T07:07:34;20.20;57.50
30244;DHT22;64022;53.652;9.792;2023-03-04T07:10:00;20.20;57.50
30244;DHT22;64022;53.652;9.792;2023-03-04T07:12:25;20.20;57.50
30244;DHT22;64022;53.652;9.792;2023-03-04T07:14:51;20.20;57.50
30244;DHT22;64022;53.652;9.792;2023-03-04T07:17:17;20.20;57.50
30244;DHT22;64022;53.652;9.792;2023-03-04T07:19:42;20.30;57.50
30244;DHT22;64022;53.652;9.792;2023-03-04T07:22:09;20.30;57.50
30244;DHT22;64022;53.652;9.792;2023-03-04T07:24:34;20.30;57.50
30244;DHT22;64022;53.652;9.792;2023-03-04T07:27:00;20.20;57.40
30244;DHT22;64022;53.652;9.792;2023-03-04T07:29:25;20.20;57.40
30244;DHT22;64022;53.652;9.792;2023-03-04T07:31:51;20.30;57.50
30244;DHT22;64022;53.652;9.792;2023-03-04T07:34:17;20.20;57.40
30244;DHT22;64022;53.652;9.792;2023-03-04T07:36:43;20.30;57.50
30244;DHT22;64022;53.652;9.792;2023-03-04T07:39:10;20.20;57.30
30244;DHT22;64022;53.652;9.792;2023-03-04T07:41:38;20.20;57.20
30244;DHT22;64022;53.652;9.792;2023-03-04T07:44:05;20.30;56.90
30244;DHT22;64022;53.652;9.792;2023-03-04T07:46:31;20.30;56.90
30244;DHT22;64022;53.652;9.792;2023-03-04T07:48:57;20.20;57.00
30244;DHT22;64022;53.652;9.792;2023-03-04T07:51:24;20.20;57.00
30244;DHT22;64022;53.652;9.792;2023-03-04T07:53:53;20.20;56.90
30244;DHT22;64022;53.652;9.792;2023-03-04T07:56:22;20.20;56.90
30244;DHT22;64022;53.652;9.792;2023-03-04T07:58:49;20.30;56.90
30244;DHT22;64022;53.652;9.792;2023-03-04T08:01:23;20.30;56.80
30244;DHT22;64022;53.652;9.792;2023-03-04T08:03:48;20.30;56.80
30244;DHT22;64022;53.652;9.792;2023-03-04T08:06:16;20.30;56.80
30244;DHT22;64022;53.652;9.792;2023-03-04T08:08:42;20.30;56.80
30244;DHT22;64022;53.652;9.792;2023-03-04T08:11:12;20.30;56.80
30244;DHT22;64022;53.652;9.792;2023-03-04T08:13:38;20.30;57.30
30244;DHT22;64022;53.652;9.792;2023-03-04T08:16:04;20.30;56.70
30244;DHT22;64022;53.652;9.792;2023-03-04T08:18:30;20.30;56.60
30244;DHT22;64022;53.652;9.792;2023-03-04T08:20:56;20.30;56.60
30244;DHT22;64022;53.652;9.792;2023-03-04T08:23:21;20.30;56.50
30244;DHT22;64022;53.652;9.792;2023-03-04T08:25:47;20.30;56.50
30244;DHT22;64022;53.652;9.792;2023-03-04T08:28:13;20.30;56.50
30244;DHT22;64022;53.652;9.792;2023-03-04T08:30:39;20.30;56.50
30244;DHT22;64022;53.652;9.792;2023-03-04T08:33:05;20.30;56.50
30244;DHT22;64022;53.652;9.792;2023-03-04T08:35:31;20.30;56.40
30244;DHT22;64022;53.652;9.792;2023-03-04T08:37:57;20.30;56.40
30244;DHT22;64022;53.652;9.792;2023-03-04T08:40:23;20.30;56.40
30244;DHT22;64022;53.652;9.792;2023-03-04T08:42:50;20.30;56.30
30244;DHT22;64022;53.652;9.792;2023-03-04T08:45:16;20.30;56.30
30244;DHT22;64022;53.652;9.792;2023-03-04T08:47:41;20.30;56.30
30244;DHT22;64022;53.652;9.792;2023-03-04T08:50:08;20.30;56.30
30244;DHT22;64022;53.652;9.792;2023-03-04T08:52:33;20.30;56.30
30244;DHT22;64022;53.652;9.792;2023-03-04T08:54:59;20.30;56.30
30244;DHT22;64022;53.652;9.792;2023-03-04T08:57:24;20.30;56.20
30244;DHT22;64022;53.652;9.792;2023-03-04T08:59:50;20.30;56.30
30244;DHT22;64022;53.652;9.792;2023-03-04T09:02:15;20.30;56.20
30244;DHT22;64022;53.652;9.792;2023-03-04T09:04:41;20.30;56.20
30244;DHT22;64022;53.652;9.792;2023-03-04T09:07:06;20.30;56.20
30244;DHT22;64022;53.652;9.792;2023-03-04T09:09:33;20.30;56.20
30244;DHT22;64022;53.652;9.792;2023-03-04T09:11:59;20.30;56.10
30244;DHT22;64022;53.652;9.792;2023-03-04T09:14:25;20.20;56.30
30244;DHT22;64022;53.652;9.792;2023-03-04T09:16:51;20.30;56.20
30244;DHT22;64022;53.652;9.792;2023-03-04T09:19:16;20.30;56.20
30244;DHT22;64022;53.652;9.792;2023-03-04T09:21:42;20.30;56.20
30244;DHT22;64022;53.652;9.792;2023-03-04T09:24:07;20.30;56.20
30244;DHT22;64022;53.652;9.792;2023-03-04T09:26:33;20.30;56.10
30244;DHT22;64022;53.652;9.792;2023-03-04T09:29:00;20.20;56.10
30244;DHT22;64022;53.652;9.792;2023-03-04T09:31:27;20.30;56.10
30244;DHT22;64022;53.652;9.792;2023-03-04T09:33:53;20.30;56.10
30244;DHT22;64022;53.652;9.792;2023-03-04T09:36:19;20.30;56.50
30244;DHT22;64022;53.652;9.792;2023-03-04T09:38:45;20.20;56.20
30244;DHT22;64022;53.652;9.792;2023-03-04T09:41:25;20.30;56.10
30244;DHT22;64022;53.652;9.792;2023-03-04T09:43:52;20.30;56.10
30244;DHT22;64022;53.652;9.792;2023-03-04T09:46:28;20.30;56.10
30244;DHT22;64022;53.652;9.792;2023-03-04T09:48:54;20.30;56.10
30244;DHT22;64022;53.652;9.792;2023-03-04T09:56:36;20.30;56.10
30244;DHT22;64022;53.652;9.792;2023-03-04T10:04:11;20.30;56.00
30244;DHT22;64022;53.652;9.792;2023-03-04T10:06:40;20.30;56.00
30244;DHT22;64022;53.652;9.792;2023-03-04T10:09:14;20.30;56.00
30244;DHT22;64022;53.652;9.792;2023-03-04T10:11:50;20.30;56.00
30244;DHT22;64022;53.652;9.792;2023-03-04T10:22:42;20.30;55.90
30244;DHT22;64022;53.652;9.792;2023-03-04T10:25:30;20.30;55.90
30244;DHT22;64022;53.652;9.792;2023-03-04T10:27:59;20.30;55.80
30244;DHT22;64022;53.652;9.792;2023-03-04T10:33:15;20.30;55.90
30244;DHT22;64022;53.652;9.792;2023-03-04T10:37:11;20.30;55.90
30244;DHT22;64022;53.652;9.792;2023-03-04T10:39:26;20.30;55.70
30244;DHT22;64022;53.652;9.792;2023-03-04T10:42:04;20.30;55.80
30244;DHT22;64022;53.652;9.792;2023-03-04T10:44:33;20.30;55.90
30244;DHT22;64022;53.652;9.792;2023-03-04T10:46:59;20.30;55.90
30244;DHT22;64022;53.652;9.792;2023-03-04T10:49:26;20.30;55.80
30244;DHT22;64022;53.652;9.792;2023-03-04T10:51:53;20.30;55.80
30244;DHT22;64022;53.652;9.792;2023-03-04T10:57:04;20.40;55.90
30244;DHT22;64022;53.652;9.792;2023-03-04T11:02:30;20.40;55.80
30244;DHT22;64022;53.652;9.792;2023-03-04T11:05:17;20.40;55.80
30244;DHT22;64022;53.652;9.792;2023-03-04T11:07:49;20.40;55.80
30244;DHT22;64022;53.652;9.792;2023-03-04T11:18:16;20.40;55.70
30244;DHT22;64022;53.652;9.792;2023-03-04T11:20:46;20.40;55.70
30244;DHT22;64022;53.652;9.792;2023-03-04T11:26:35;20.40;55.50
30244;DHT22;64022;53.652;9.792;2023-03-04T11:29:24;20.40;55.60
30244;DHT22;64022;53.652;9.792;2023-03-04T11:32:05;20.40;55.50
30244;DHT22;64022;53.652;9.792;2023-03-04T11:34:50;20.40;55.60
30244;DHT22;64022;53.652;9.792;2023-03-04T11:37:33;20.40;55.60
30244;DHT22;64022;53.652;9.792;2023-03-04T11:40:10;20.40;55.60
30244;DHT22;64022;53.652;9.792;2023-03-04T11:42:47;20.40;55.60
30244;DHT22;64022;53.652;9.792;2023-03-04T11:48:42;20.40;55.50
30244;DHT22;64022;53.652;9.792;2023-03-04T11:54:16;20.30;55.50
30244;DHT22;64022;53.652;9.792;2023-03-04T11:56:52;20.40;55.50
30244;DHT22;64022;53.652;9.792;2023-03-04T12:02:17;20.40;55.50
30244;DHT22;64022;53.652;9.792;2023-03-04T12:07:58;20.40;55.40
30244;DHT22;64022;53.652;9.792;2023-03-04T12:27:38;20.40;55.30
30244;DHT22;64022;53.652;9.792;2023-03-04T12:44:41;20.40;55.30
30244;DHT22;64022;53.652;9.792;2023-03-04T12:47:20;20.40;55.50
30244;DHT22;64022;53.652;9.792;2023-03-04T12:52:38;20.40;55.40
30244;DHT22;64022;53.652;9.792;2023-03-04T12:55:13;20.40;55.30
30244;DHT22;64022;53.652;9.792;2023-03-04T12:57:39;20.40;55.40
30244;DHT22;64022;53.652;9.792;2023-03-04T13:08:25;20.40;55.30
30244;DHT22;64022;53.652;9.792;2023-03-04T13:14:03;20.40;55.30
30244;DHT22;64022;53.652;9.792;2023-03-04T13:19:43;20.40;55.20
30244;DHT22;64022;53.652;9.792;2023-03-04T13:43:52;20.40;55.20
30244;DHT22;64022;53.652;9.792;2023-03-04T13:51:18;20.40;55.10
30244;DHT22;64022;53.652;9.792;2023-03-04T13:53:53;20.40;55.10
30244;DHT22;64022;53.652;9.792;2023-03-04T13:56:33;20.40;55.10
30244;DHT22;64022;53.652;9.792;2023-03-04T14:04:20;20.40;55.10
30244;DHT22;64022;53.652;9.792;2023-03-04T14:06:50;20.40;55.00
30244;DHT22;64022;53.652;9.792;2023-03-04T14:09:19;20.40;55.10
30244;DHT22;64022;53.652;9.792;2023-03-04T14:11:47;20.40;55.10
30244;DHT22;64022;53.652;9.792;2023-03-04T14:14:19;20.40;55.10
30244;DHT22;64022;53.652;9.792;2023-03-04T14:16:49;20.40;55.00
30244;DHT22;64022;53.652;9.792;2023-03-04T14:19:24;20.40;55.10
30244;DHT22;64022;53.652;9.792;2023-03-04T14:21:50;20.40;55.00
30244;DHT22;64022;53.652;9.792;2023-03-04T14:24:18;20.40;55.00
30244;DHT22;64022;53.652;9.792;2023-03-04T14:26:45;20.40;55.00
30244;DHT22;64022;53.652;9.792;2023-03-04T14:29:28;20.40;55.00
30244;DHT22;64022;53.652;9.792;2023-03-04T14:31:54;20.40;54.90
30244;DHT22;64022;53.652;9.792;2023-03-04T14:34:32;20.40;55.00
30244;DHT22;64022;53.652;9.792;2023-03-04T14:36:59;20.40;54.90
30244;DHT22;64022;53.652;9.792;2023-03-04T14:39:29;20.40;54.90
30244;DHT22;64022;53.652;9.792;2023-03-04T14:42:00;20.40;54.90
30244;DHT22;64022;53.652;9.792;2023-03-04T14:47:20;20.20;49.70
30244;DHT22;64022;53.652;9.792;2023-03-04T14:49:47;19.90;49.40
30244;DHT22;64022;53.652;9.792;2023-03-04T14:52:46;19.70;50.30
30244;DHT22;64022;53.652;9.792;2023-03-04T14:55:21;19.70;51.20
30244;DHT22;64022;53.652;9.792;2023-03-04T14:57:49;19.70;52.00
30244;DHT22;64022;53.652;9.792;2023-03-04T15:00:31;19.70;52.30
30244;DHT22;64022;53.652;9.792;2023-03-04T15:03:44;19.80;52.80
30244;DHT22;64022;53.652;9.792;2023-03-04T15:05:44;19.80;53.10
30244;DHT22;64022;53.652;9.792;2023-03-04T15:08:26;19.80;53.40
30244;DHT22;64022;53.652;9.792;2023-03-04T15:10:57;19.90;53.50
30244;DHT22;64022;53.652;9.792;2023-03-04T15:13:42;19.90;53.90
30244;DHT22;64022;53.652;9.792;2023-03-04T15:16:09;19.90;53.80
30244;DHT22;64022;53.652;9.792;2023-03-04T15:18:35;19.90;54.50
30244;DHT22;64022;53.652;9.792;2023-03-04T15:21:35;20.00;54.80
30244;DHT22;64022;53.652;9.792;2023-03-04T15:23:59;20.00;54.90
30244;DHT22;64022;53.652;9.792;2023-03-04T15:26:24;20.00;55.70
30244;DHT22;64022;53.652;9.792;2023-03-04T15:28:51;20.00;55.50
30244;DHT22;64022;53.652;9.792;2023-03-04T15:31:20;20.00;55.70
30244;DHT22;64022;53.652;9.792;2023-03-04T15:33:46;20.10;56.00
30244;DHT22;64022;53.652;9.792;2023-03-04T15:36:15;20.10;56.20
30244;DHT22;64022;53.652;9.792;2023-03-04T15:38:43;20.10;56.20
30244;DHT22;64022;53.652;9.792;2023-03-04T15:41:11;20.10;56.60
30244;DHT22;64022;53.652;9.792;2023-03-04T15:43:37;20.10;56.90
30244;DHT22;64022;53.652;9.792;2023-03-04T15:46:03;20.10;57.10
30244;DHT22;64022;53.652;9.792;2023-03-04T15:48:28;20.10;57.20
30244;DHT22;64022;53.652;9.792;2023-03-04T15:50:59;20.10;57.30
30244;DHT22;64022;53.652;9.792;2023-03-04T15:53:40;20.10;57.60
30244;DHT22;64022;53.652;9.792;2023-03-04T15:56:14;20.10;57.30
30244;DHT22;64022;53.652;9.792;2023-03-04T15:58:41;20.10;58.00
30244;DHT22;64022;53.652;9.792;2023-03-04T16:01:08;20.10;58.40
30244;DHT22;64022;53.652;9.792;2023-03-04T16:03:35;20.00;57.00
30244;DHT22;64022;53.652;9.792;2023-03-04T16:06:00;20.00;58.60
30244;DHT22;64022;53.652;9.792;2023-03-04T16:08:26;20.00;58.70
30244;DHT22;64022;53.652;9.792;2023-03-04T16:10:52;20.10;58.90
30244;DHT22;64022;53.652;9.792;2023-03-04T16:13:20;20.10;59.20
30244;DHT22;64022;53.652;9.792;2023-03-04T16:15:45;20.00;59.30
30244;DHT22;64022;53.652;9.792;2023-03-04T16:18:12;20.10;59.50
30244;DHT22;64022;53.652;9.792;2023-03-04T16:20:40;20.10;59.60
30244;DHT22;64022;53.652;9.792;2023-03-04T16:23:17;20.10;59.80
30244;DHT22;64022;53.652;9.792;2023-03-04T16:25:46;20.10;60.00
30244;DHT22;64022;53.652;9.792;2023-03-04T16:28:12;20.10;60.20
30244;DHT22;64022;53.652;9.792;2023-03-04T16:30:38;20.10;60.30
30244;DHT22;64022;53.652;9.792;2023-03-04T16:33:04;20.10;60.40
30244;DHT22;64022;53.652;9.792;2023-03-04T16:35:31;20.10;60.60
30244;DHT22;64022;53.652;9.792;2023-03-04T16:37:58;20.10;60.80
30244;DHT22;64022;53.652;9.792;2023-03-04T16:40:26;20.10;60.80
30244;DHT22;64022;53.652;9.792;2023-03-04T16:42:53;20.10;60.90
30244;DHT22;64022;53.652;9.792;2023-03-04T16:45:22;20.10;61.10
30244;DHT22;64022;53.652;9.792;2023-03-04T16:47:47;20.10;61.00
30244;DHT22;64022;53.652;9.792;2023-03-04T16:50:19;20.10;61.10
30244;DHT22;64022;53.652;9.792;2023-03-04T16:52:47;20.10;61.10
30244;DHT22;64022;53.652;9.792;2023-03-04T16:55:24;20.10;61.40
30244;DHT22;64022;53.652;9.792;2023-03-04T16:57:50;20.10;61.40
30244;DHT22;64022;53.652;9.792;2023-03-04T17:00:18;20.10;61.60
30244;DHT22;64022;53.652;9.792;2023-03-04T17:02:45;20.10;61.70
30244;DHT22;64022;53.652;9.792;2023-03-04T17:05:18;20.10;61.90
30244;DHT22;64022;53.652;9.792;2023-03-04T17:07:45;20.10;62.00
30244;DHT22;64022;53.652;9.792;2023-03-04T17:10:12;20.10;62.00
30244;DHT22;64022;53.652;9.792;2023-03-04T17:12:37;20.10;62.10
30244;DHT22;64022;53.652;9.792;2023-03-04T17:15:04;20.10;62.20
30244;DHT22;64022;53.652;9.792;2023-03-04T17:17:30;20.10;62.30
30244;DHT22;64022;53.652;9.792;2023-03-04T17:19:56;20.10;62.50
30244;DHT22;64022;53.652;9.792;2023-03-04T17:22:22;20.10;62.50
30244;DHT22;64022;53.652;9.792;2023-03-04T17:24:48;20.10;62.60
30244;DHT22;64022;53.652;9.792;2023-03-04T17:27:14;20.00;62.70
30244;DHT22;64022;53.652;9.792;2023-03-04T17:29:39;20.10;62.80
30244;DHT22;64022;53.652;9.792;2023-03-04T17:32:05;20.00;62.80
30244;DHT22;64022;53.652;9.792;2023-03-04T17:34:31;20.00;62.90
30244;DHT22;64022;53.652;9.792;2023-03-04T17:36:57;20.00;63.00
30244;DHT22;64022;53.652;9.792;2023-03-04T17:39:23;20.00;63.10
30244;DHT22;64022;53.652;9.792;2023-03-04T17:41:49;20.00;63.10
30244;DHT22;64022;53.652;9.792;2023-03-04T17:44:15;20.00;63.10
30244;DHT22;64022;53.652;9.792;2023-03-04T17:46:41;20.00;63.10
30244;DHT22;64022;53.652;9.792;2023-03-04T17:49:06;20.00;63.10
30244;DHT22;64022;53.652;9.792;2023-03-04T17:51:34;20.00;63.10
30244;DHT22;64022;53.652;9.792;2023-03-04T17:54:01;20.00;63.10
30244;DHT22;64022;53.652;9.792;2023-03-04T17:56:28;20.00;63.20
30244;DHT22;64022;53.652;9.792;2023-03-04T17:58:59;20.00;63.10